Kezdőlap
METAR-TAF:

METAR-TAF

Repülőterek :

Csita, Oroszország

földrajzi szélesség: 52-05N, földrajzi hosszúság: 113-29E, magasság: 685 m

Jelenlegi meteorológiai megfigyelések

A jelentés 44 perccel ezelõtt készült, 19:30 UTC
Déli szél 4 kt
Hőmérséklet -8°C
Páratartalom 73%
Légköri nyomás 1008 hPa
Látótávolság 10 km, vagy több

METAR: UIAA 221930Z 19002MPS 9999 NSC M08/M12 Q1008 R29/410160 NOSIG RMK QFE697/0930

Idő: 05:14 (20:14 UTC)

Előrejelzés

A jelentés 3 órával és 14 perccel ezelõtt készült, 17:00 UTC
Az előrejelzés 22-én 18 óra UTC és 23-én 18 óra UTC között érvényes
Nyugati szél 6 kt
Látótávolság 10 km, vagy több
Szórványos felhőzet 4000 lábon, Cumulonimbus.

TAF: UIAA 221700Z 2218/2318 28003MPS 9999 SCT040CB

Meteorológiai megfigyelések és előrejelzések több, mint 4000 repülőtéren (METAR és TAF jelentéseket).

A térképen piros és sárga pontok jelzik az elérhető meteorológiai állomásokat.

Mozgassa az egeret a pont fölött, hogy megjelenjen az állomás neve.

Azután kattintson az időjárási megfigyelések és előrejelzések megtekintéséhez.

A térkép megváltoztatása: kattintson a fekete keresztel jelölt zöld gombra ráközelítéshez, a vonallal jelölt zöld gombra távolításhoz, vagy a zöld nyilakra a szomszédos térképek eléréséhez.


METAR-TAF: